Capitol Logistics 593




RJAA
Tokyo-Narita International Airport
Tokyo, JP
RCTP
Taiwan Taoyuan International Airport
Taipei, TW

Activity Log

Date Flight Route Aircraft Duration
11/16/2021 CPX993 TETRA8 SZE Y295 GAKKI Y296 HANTO Y56 KEC A1 DRAKE B744 3h 45m

Route Details

Aircraft Information
Group: Trans-Pacific Ops
Types: B744,B763,MD11
Route Data
Demand: D
Distance: 1179nm
Duration: 3h 00m
Recm'd Route: TETRA8 SZE Y295 GAKKI Y296 HANTO Y56 KEC A1 DRAKE
Origin Wx: RJAA 270630Z 15011KT 9999 FEW010 SCT020 BKN/// 22/19 Q0997 NOSIG RMK 1CU010 4CU020 A2945
Dest. Wx: RCTP 270700Z 02008KT 9999 SCT005 BKN008 BKN016 24/23 Q1006 NOSIG RMK A2971 RA AMT 0.6MM
Notes:

Financial History
Total Freight: 16,643lbs
Average Load: 16,643lbs/flt
Fuel Used: 85,788lbs
Avg. Fuel Used: 85,788lbs/flt
Fuel Expense: $30,884
Avg. Fuel Expense: $30,884
Avg. Fuel Cost: $0.36/lbs
Total Gross Income: $41,042
Pilot Pay: $169
Total Expenses: $6,471
Total Revenue: $3,104
Average Revenue: $41,041.64